createdAt,value
2022-11-16T00:00:18.871Z,89.05
2022-11-16T00:02:46.173Z,89.38
2022-11-16T00:05:13.549Z,89.27
2022-11-16T00:07:40.830Z,89.64
2022-11-16T00:10:08.464Z,90.51
2022-11-16T00:12:35.892Z,89.78
2022-11-16T00:15:03.861Z,90.06
2022-11-16T00:17:31.061Z,90.34
2022-11-16T00:19:58.416Z,90.59
2022-11-16T00:22:25.596Z,90.50
2022-11-16T00:24:52.880Z,90.42
2022-11-16T00:27:20.162Z,90.19
2022-11-16T00:29:47.514Z,89.74
2022-11-16T00:32:14.734Z,89.53
2022-11-16T00:34:42.126Z,89.67
2022-11-16T00:37:09.339Z,89.62
2022-11-16T00:39:36.780Z,89.39
2022-11-16T00:42:04.123Z,89.17
2022-11-16T00:44:31.417Z,89.23
2022-11-16T00:46:59.009Z,89.69
2022-11-16T00:49:26.323Z,89.86
2022-11-16T00:51:53.579Z,89.31
2022-11-16T00:54:22.371Z,89.87
2022-11-16T00:56:50.218Z,89.31
2022-11-16T00:59:17.550Z,88.87
2022-11-16T01:01:44.870Z,89.25
2022-11-16T01:04:12.376Z,89.85
2022-11-16T01:06:39.582Z,89.37
2022-11-16T01:09:06.921Z,89.04
2022-11-16T01:11:52.767Z,89.20
2022-11-16T01:14:20.090Z,88.06
2022-11-16T01:16:49.726Z,87.62
2022-11-16T01:19:17.091Z,88.07
2022-11-16T01:21:44.337Z,88.02
2022-11-16T01:24:11.637Z,87.86
2022-11-16T01:26:38.947Z,88.06
2022-11-16T01:29:06.644Z,88.89
2022-11-16T01:31:38.410Z,89.29
2022-11-16T01:34:06.093Z,89.25
2022-11-16T01:36:33.430Z,88.65
2022-11-16T01:39:02.840Z,88.75
2022-11-16T01:41:36.296Z,88.69
2022-11-16T01:44:26.595Z,88.77
2022-11-16T01:47:01.378Z,88.85
2022-11-16T01:49:30.983Z,88.49
2022-11-16T01:52:01.669Z,88.17
2022-11-16T01:54:32.559Z,88.25
2022-11-16T01:57:04.821Z,87.86
2022-11-16T01:59:36.923Z,87.99
2022-11-16T02:02:05.909Z,88.18
2022-11-16T02:04:33.927Z,88.07
2022-11-16T02:07:11.929Z,88.51
2022-11-16T02:09:54.521Z,88.44
2022-11-16T02:12:49.123Z,88.43
2022-11-16T02:15:23.486Z,88.20
2022-11-16T02:18:08.146Z,87.75
2022-11-16T02:20:47.906Z,87.51
2022-11-16T02:23:37.262Z,87.61
2022-11-16T02:26:38.867Z,87.17
2022-11-16T02:29:12.287Z,87.76
2022-11-16T02:31:42.393Z,88.22
2022-11-16T02:34:11.075Z,88.36
2022-11-16T02:36:39.838Z,88.18
2022-11-16T02:39:10.763Z,87.85
2022-11-16T02:41:39.696Z,87.68
2022-11-16T02:44:10.555Z,87.64
2022-11-16T02:46:39.524Z,87.93
2022-11-16T02:49:12.028Z,87.42
2022-11-16T02:51:40.800Z,87.08
2022-11-16T02:54:18.747Z,86.89
2022-11-16T02:57:02.357Z,86.85
2022-11-16T02:59:34.879Z,86.81
2022-11-16T03:02:14.333Z,86.13
2022-11-16T03:05:03.317Z,85.61
2022-11-16T03:07:40.226Z,86.58
2022-11-16T03:10:08.672Z,87.05
2022-11-16T03:12:36.911Z,87.19
2022-11-16T03:15:06.467Z,87.56
2022-11-16T03:17:46.288Z,87.65
2022-11-16T03:20:20.830Z,87.44
2022-11-16T03:22:52.792Z,88.15
2022-11-16T03:25:21.068Z,88.32
2022-11-16T03:28:03.724Z,88.38
2022-11-16T03:30:33.271Z,88.62
2022-11-16T03:33:13.229Z,87.89
2022-11-16T03:35:45.003Z,88.11
2022-11-16T03:38:12.461Z,87.99
2022-11-16T03:40:43.633Z,86.83
2022-11-16T03:43:10.930Z,86.83
2022-11-16T03:45:40.069Z,87.23
2022-11-16T03:48:09.369Z,87.17
2022-11-16T03:50:36.786Z,87.62
2022-11-16T03:53:04.086Z,87.96
2022-11-16T03:55:31.755Z,88.08
2022-11-16T03:57:59.588Z,88.00
2022-11-16T04:00:26.850Z,88.15
2022-11-16T04:02:54.390Z,88.03
2022-11-16T04:05:41.399Z,87.99
2022-11-16T04:08:35.600Z,87.50
2022-11-16T04:11:22.329Z,86.84
2022-11-16T04:14:09.560Z,86.59
2022-11-16T04:16:58.553Z,86.76
2022-11-16T04:19:45.291Z,87.06
2022-11-16T04:22:42.325Z,86.79
2022-11-16T04:25:34.552Z,86.60
2022-11-16T04:28:16.265Z,86.20
2022-11-16T04:31:16.028Z,86.20
2022-11-16T04:34:08.917Z,86.42
2022-11-16T04:36:54.999Z,86.37
2022-11-16T04:39:22.290Z,85.90
2022-11-16T04:42:07.985Z,85.51
2022-11-16T04:44:55.002Z,85.58
2022-11-16T04:47:25.480Z,85.60
2022-11-16T04:49:52.798Z,85.22
2022-11-16T04:52:21.071Z,85.01
2022-11-16T04:54:48.944Z,84.89
2022-11-16T04:57:16.856Z,85.36
2022-11-16T04:59:45.404Z,84.84
2022-11-16T05:02:13.287Z,84.51
2022-11-16T05:04:49.014Z,84.56
2022-11-16T05:07:17.499Z,85.37
2022-11-16T05:09:47.402Z,85.70
2022-11-16T05:12:19.828Z,85.84
2022-11-16T05:14:49.184Z,86.32
2022-11-16T05:17:17.944Z,86.03
2022-11-16T05:20:03.854Z,85.43
2022-11-16T05:22:35.459Z,85.24
2022-11-16T05:25:04.445Z,85.78
2022-11-16T05:27:31.824Z,85.30
2022-11-16T05:29:59.863Z,84.49
2022-11-16T05:32:27.685Z,84.70
2022-11-16T05:34:59.458Z,84.86
2022-11-16T05:37:27.057Z,84.58
2022-11-16T05:39:55.074Z,84.03
2022-11-16T05:42:27.243Z,83.61
2022-11-16T05:44:54.888Z,83.42
2022-11-16T05:47:22.364Z,83.68
2022-11-16T05:49:50.132Z,83.52
2022-11-16T05:52:18.913Z,84.27
2022-11-16T05:54:46.717Z,84.89
2022-11-16T05:57:15.566Z,85.15
2022-11-16T05:59:43.138Z,85.29
2022-11-16T06:02:10.423Z,85.22
2022-11-16T06:04:37.976Z,84.93
2022-11-16T06:07:05.766Z,84.57
2022-11-16T06:09:35.688Z,84.13
2022-11-16T06:12:13.269Z,83.11
2022-11-16T06:14:40.764Z,83.76
2022-11-16T06:17:08.179Z,84.26
2022-11-16T06:19:35.634Z,83.95
2022-11-16T06:22:03.013Z,83.90
2022-11-16T06:24:30.963Z,84.07
2022-11-16T06:26:59.109Z,83.37
2022-11-16T06:29:34.058Z,83.27
2022-11-16T06:32:01.555Z,82.75
2022-11-16T06:34:28.980Z,82.55
2022-11-16T06:36:57.056Z,82.88
2022-11-16T06:39:25.136Z,83.07
2022-11-16T06:41:52.795Z,82.94
2022-11-16T06:44:22.827Z,82.49
2022-11-16T06:46:57.062Z,82.64
2022-11-16T06:49:24.716Z,83.18
2022-11-16T06:51:54.047Z,84.15
2022-11-16T06:54:21.837Z,83.61
2022-11-16T06:56:51.353Z,83.34
2022-11-16T06:59:21.405Z,83.34
2022-11-16T07:01:51.622Z,83.10
2022-11-16T07:04:20.651Z,82.83
2022-11-16T07:06:58.125Z,82.69
2022-11-16T07:09:25.755Z,82.94
2022-11-16T07:11:53.213Z,82.60
2022-11-16T07:14:21.692Z,82.66
2022-11-16T07:16:52.615Z,82.78
2022-11-16T07:19:22.392Z,82.27
2022-11-16T07:21:49.823Z,82.15
2022-11-16T07:24:19.494Z,81.94
2022-11-16T07:26:54.413Z,85.53
2022-11-16T07:29:25.702Z,82.06
2022-11-16T07:32:18.092Z,81.82
2022-11-16T07:35:08.107Z,83.61
2022-11-16T07:37:37.489Z,84.60
2022-11-16T07:40:08.985Z,84.53
2022-11-16T07:42:40.901Z,83.61
2022-11-16T07:45:14.471Z,83.53
2022-11-16T07:47:52.825Z,82.70
2022-11-16T07:50:46.684Z,83.30
2022-11-16T07:53:15.208Z,83.27
2022-11-16T07:55:42.571Z,83.37
2022-11-16T07:58:10.519Z,83.72
2022-11-16T08:00:44.204Z,82.79
2022-11-16T08:03:18.144Z,83.11
2022-11-16T08:05:49.481Z,81.23
2022-11-16T08:08:16.983Z,81.10
2022-11-16T08:10:44.604Z,81.99
2022-11-16T08:13:12.149Z,82.45
2022-11-16T08:15:41.556Z,82.19
2022-11-16T08:18:10.074Z,81.67
2022-11-16T08:20:37.806Z,80.52
2022-11-16T08:23:05.375Z,79.53
2022-11-16T08:25:35.595Z,79.34
2022-11-16T08:28:03.412Z,79.85
2022-11-16T08:30:31.824Z,79.88
2022-11-16T08:33:00.913Z,79.64
2022-11-16T08:35:28.800Z,79.68
2022-11-16T08:37:56.491Z,79.21
2022-11-16T08:40:25.615Z,79.14
2022-11-16T08:42:57.221Z,78.66
2022-11-16T08:45:40.723Z,79.02
2022-11-16T08:48:09.519Z,79.33
2022-11-16T08:51:09.889Z,78.72
2022-11-16T08:53:28.645Z,78.64
2022-11-16T08:55:59.261Z,78.54
2022-11-16T08:59:05.952Z,78.09
2022-11-16T09:04:24.933Z,78.16
2022-11-16T09:06:55.649Z,77.80
2022-11-16T09:09:23.888Z,78.12
2022-11-16T09:11:53.762Z,78.00
2022-11-16T09:14:22.192Z,78.49
2022-11-16T09:17:13.244Z,78.20
2022-11-16T09:19:41.398Z,78.71
2022-11-16T09:22:28.838Z,79.14
2022-11-16T09:25:04.441Z,78.88
2022-11-16T09:27:37.226Z,78.53
2022-11-16T09:30:17.092Z,78.75
2022-11-16T09:32:48.571Z,78.57
2022-11-16T09:35:23.590Z,78.25
2022-11-16T09:37:51.136Z,78.34
2022-11-16T09:40:19.071Z,78.43
2022-11-16T09:43:01.584Z,78.17
2022-11-16T09:45:56.693Z,78.56
2022-11-16T09:48:24.296Z,77.38
2022-11-16T09:51:01.989Z,77.59
2022-11-16T09:53:38.354Z,77.78
2022-11-16T09:56:11.071Z,77.72
2022-11-16T09:59:00.746Z,77.38
2022-11-16T10:01:39.080Z,77.63
2022-11-16T10:04:56.712Z,77.30
2022-11-16T10:07:46.185Z,77.05
2022-11-16T10:11:05.386Z,76.81
2022-11-16T10:14:03.800Z,76.65
2022-11-16T10:16:46.203Z,76.98
2022-11-16T10:19:24.104Z,76.16
2022-11-16T10:22:02.641Z,76.56
2022-11-16T10:24:36.562Z,75.35
2022-11-16T10:27:44.485Z,75.67
2022-11-16T10:30:15.364Z,75.70
2022-11-16T10:33:00.608Z,76.18
2022-11-16T10:35:40.823Z,75.78
2022-11-16T10:38:14.117Z,75.91
2022-11-16T10:40:42.389Z,76.22
2022-11-16T10:43:22.368Z,76.64
2022-11-16T10:46:19.181Z,76.61
2022-11-16T10:49:06.425Z,76.40
2022-11-16T10:51:33.935Z,76.50
2022-11-16T10:54:01.521Z,76.34
2022-11-16T10:56:37.423Z,76.80
2022-11-16T10:59:11.468Z,75.99
2022-11-16T11:01:47.141Z,75.64
2022-11-16T11:04:18.288Z,75.59
2022-11-16T11:06:47.912Z,75.77
2022-11-16T11:09:16.666Z,76.06
2022-11-16T11:12:02.990Z,76.36
2022-11-16T11:14:32.688Z,76.20
2022-11-16T11:17:10.881Z,76.16
2022-11-16T11:19:38.494Z,76.07
2022-11-16T11:22:06.733Z,75.86
2022-11-16T11:24:49.814Z,75.60
2022-11-16T11:27:38.715Z,76.32
2022-11-16T11:30:18.197Z,76.11
2022-11-16T11:32:46.097Z,75.70
2022-11-16T11:35:28.162Z,75.73
2022-11-16T11:37:56.619Z,75.59
2022-11-16T11:40:31.233Z,76.35
2022-11-16T11:43:04.212Z,76.45
2022-11-16T11:46:04.461Z,76.27
2022-11-16T11:48:40.484Z,77.08
2022-11-16T11:51:22.810Z,77.32
2022-11-16T11:53:55.987Z,76.85
2022-11-16T11:56:27.606Z,77.47
2022-11-16T11:59:03.632Z,80.23
2022-11-16T12:01:34.865Z,76.70
2022-11-16T12:04:08.521Z,77.24
2022-11-16T12:06:45.622Z,77.91
2022-11-16T12:09:37.200Z,77.17
2022-11-16T12:12:15.475Z,78.61
2022-11-16T12:15:04.176Z,77.14
2022-11-16T12:17:40.393Z,77.92
2022-11-16T12:20:32.171Z,78.56
2022-11-16T12:23:16.709Z,79.34
2022-11-16T12:25:50.396Z,79.10
2022-11-16T12:28:32.100Z,80.41
2022-11-16T12:31:21.580Z,79.38
2022-11-16T12:33:49.340Z,78.65
2022-11-16T12:36:22.555Z,78.65
2022-11-16T12:39:13.685Z,78.16
2022-11-16T12:41:44.994Z,77.47
2022-11-16T12:44:13.254Z,77.45
2022-11-16T12:47:00.827Z,78.07
2022-11-16T12:49:52.787Z,77.95
2022-11-16T12:52:42.003Z,77.78
2022-11-16T12:55:28.794Z,78.81
2022-11-16T12:58:02.315Z,78.42
2022-11-16T13:00:39.920Z,78.57
2022-11-16T13:04:00.355Z,78.50
2022-11-16T13:07:07.840Z,78.50
2022-11-16T13:09:40.947Z,78.42
2022-11-16T13:12:14.688Z,78.51
2022-11-16T13:14:49.108Z,79.03
2022-11-16T13:17:21.689Z,79.37
2022-11-16T13:20:23.715Z,79.19
2022-11-16T13:23:05.445Z,79.07
2022-11-16T13:25:55.146Z,79.15
2022-11-16T13:28:36.663Z,78.83
2022-11-16T13:31:10.327Z,78.86
2022-11-16T13:33:51.252Z,78.53
2022-11-16T13:36:37.451Z,79.14
2022-11-16T13:39:06.037Z,78.72
2022-11-16T13:41:45.758Z,79.10
2022-11-16T13:44:20.542Z,79.25
2022-11-16T13:47:18.512Z,79.58
2022-11-16T13:49:53.773Z,79.99
2022-11-16T13:52:24.136Z,79.85
2022-11-16T13:54:55.432Z,79.80
2022-11-16T13:57:56.999Z,79.53
2022-11-16T14:00:28.294Z,79.47
2022-11-16T14:03:26.374Z,80.29
2022-11-16T14:05:54.363Z,80.60
2022-11-16T14:08:24.837Z,80.87
2022-11-16T14:10:52.847Z,81.01
2022-11-16T14:13:38.456Z,80.47
2022-11-16T14:16:15.022Z,81.11
2022-11-16T14:18:42.849Z,81.16
2022-11-16T14:21:19.400Z,81.29
2022-11-16T14:24:25.930Z,81.35
2022-11-16T14:27:18.129Z,81.48
2022-11-16T14:29:48.524Z,81.67
2022-11-16T14:32:41.318Z,82.22
2022-11-16T14:35:25.661Z,82.27
2022-11-16T14:38:26.927Z,82.42
2022-11-16T14:40:59.180Z,82.70
2022-11-16T14:43:41.844Z,82.83
2022-11-16T14:46:33.392Z,83.11
2022-11-16T14:49:01.109Z,83.11
2022-11-16T14:51:35.705Z,82.52
2022-11-16T14:54:15.120Z,82.43
2022-11-16T14:57:01.980Z,82.34
2022-11-16T14:59:29.752Z,82.50
2022-11-16T15:01:59.609Z,82.54
2022-11-16T15:04:27.578Z,82.58
2022-11-16T15:07:04.347Z,82.17
2022-11-16T15:09:35.625Z,82.19
2022-11-16T15:12:23.150Z,82.32
2022-11-16T15:14:52.259Z,82.05
2022-11-16T15:17:27.251Z,81.87
2022-11-16T15:20:21.784Z,81.87
2022-11-16T15:22:51.841Z,82.09
2022-11-16T15:25:26.322Z,83.00
2022-11-16T15:27:54.408Z,82.83
2022-11-16T15:30:29.695Z,82.89
2022-11-16T15:32:57.037Z,83.12
2022-11-16T15:35:25.080Z,82.86
2022-11-16T15:38:01.701Z,83.08
2022-11-16T15:40:29.092Z,83.42
2022-11-16T15:42:58.369Z,83.50
2022-11-16T15:45:25.946Z,83.60
2022-11-16T15:47:53.918Z,84.37
2022-11-16T15:50:23.435Z,84.37
2022-11-16T15:52:55.247Z,84.92
2022-11-16T15:55:34.503Z,84.60
2022-11-16T15:58:04.922Z,85.09
2022-11-16T16:00:34.909Z,85.42
2022-11-16T16:03:17.351Z,85.32
2022-11-16T16:05:44.777Z,84.94
2022-11-16T16:08:34.277Z,85.62
2022-11-16T16:11:12.519Z,86.13
2022-11-16T16:13:44.890Z,85.65
2022-11-16T16:16:31.634Z,85.58
2022-11-16T16:19:04.985Z,85.86
2022-11-16T16:21:43.550Z,86.51
2022-11-16T16:24:32.005Z,86.59
2022-11-16T16:26:59.318Z,86.69
2022-11-16T16:29:29.645Z,87.19
2022-11-16T16:31:57.040Z,86.97
2022-11-16T16:34:24.329Z,86.46
2022-11-16T16:36:51.727Z,86.42
2022-11-16T16:39:18.953Z,86.81
2022-11-16T16:41:46.261Z,86.65
2022-11-16T16:44:14.436Z,87.19
2022-11-16T16:46:41.808Z,87.31
2022-11-16T16:49:09.037Z,87.69
2022-11-16T16:51:36.397Z,87.72
2022-11-16T16:54:03.799Z,87.65
2022-11-16T16:56:31.054Z,88.41
2022-11-16T16:58:58.346Z,88.23
2022-11-16T17:01:26.763Z,88.74
2022-11-16T17:03:54.071Z,88.76
2022-11-16T17:06:21.471Z,88.96
2022-11-16T17:08:48.762Z,88.85
2022-11-16T17:11:17.955Z,89.13
2022-11-16T17:13:45.240Z,88.99
2022-11-16T17:16:12.708Z,88.60
2022-11-16T17:18:40.081Z,88.69
2022-11-16T17:21:08.739Z,88.37
2022-11-16T17:23:36.618Z,88.53
2022-11-16T17:26:05.313Z,88.43
2022-11-16T17:28:32.712Z,87.91
2022-11-16T17:31:18.218Z,87.88
2022-11-16T17:33:45.583Z,88.18
2022-11-16T17:36:13.157Z,88.18
2022-11-16T17:38:40.608Z,88.38
2022-11-16T17:41:08.655Z,88.17
2022-11-16T17:43:36.545Z,88.09
2022-11-16T17:46:12.032Z,88.43
2022-11-16T17:48:40.170Z,88.53
2022-11-16T17:51:07.440Z,88.37
2022-11-16T17:53:35.716Z,88.37
2022-11-16T17:56:03.853Z,87.52
2022-11-16T17:58:31.458Z,87.77
2022-11-16T18:00:58.812Z,88.09
2022-11-16T18:03:28.571Z,88.15
2022-11-16T18:06:09.316Z,88.48
2022-11-16T18:08:36.933Z,88.09
2022-11-16T18:11:11.498Z,88.26
2022-11-16T18:13:38.892Z,88.31
2022-11-16T18:16:06.805Z,88.25
2022-11-16T18:18:34.970Z,88.41
2022-11-16T18:21:02.216Z,88.42
2022-11-16T18:23:29.603Z,87.58
2022-11-16T18:25:56.906Z,87.42
2022-11-16T18:28:24.238Z,87.72
2022-11-16T18:30:51.669Z,88.05
2022-11-16T18:33:19.032Z,88.22
2022-11-16T18:35:46.376Z,88.07
2022-11-16T18:38:13.741Z,87.83
2022-11-16T18:40:41.169Z,87.51
2022-11-16T18:43:12.734Z,87.63
2022-11-16T18:45:40.085Z,87.19
2022-11-16T18:48:07.443Z,87.34
2022-11-16T18:50:34.799Z,87.33
2022-11-16T18:53:02.014Z,86.60
2022-11-16T18:55:29.460Z,86.75
2022-11-16T18:57:56.783Z,86.32
2022-11-16T19:00:24.117Z,86.32
2022-11-16T19:02:51.364Z,86.02
2022-11-16T19:05:18.628Z,86.05
2022-11-16T19:07:45.835Z,86.10
2022-11-16T19:10:14.386Z,85.42
2022-11-16T19:12:41.620Z,85.78
2022-11-16T19:15:09.172Z,85.56
2022-11-16T19:17:48.175Z,86.02
2022-11-16T19:20:23.737Z,86.22
2022-11-16T19:22:50.981Z,86.69
2022-11-16T19:25:18.267Z,86.51
2022-11-16T19:27:45.544Z,86.27
2022-11-16T19:30:12.908Z,86.10
2022-11-16T19:32:40.143Z,86.46
2022-11-16T19:35:10.922Z,86.52
2022-11-16T19:37:41.285Z,85.93
2022-11-16T19:40:08.749Z,86.30
2022-11-16T19:42:36.013Z,86.59
2022-11-16T19:45:03.450Z,86.25
2022-11-16T19:47:30.708Z,86.16
2022-11-16T19:49:58.027Z,86.29
2022-11-16T19:52:25.310Z,85.93
2022-11-16T19:54:52.628Z,86.05
2022-11-16T19:57:20.735Z,86.09
2022-11-16T19:59:48.019Z,86.21
2022-11-16T20:02:15.220Z,86.15
2022-11-16T20:04:42.555Z,86.40
2022-11-16T20:07:11.056Z,86.46
2022-11-16T20:09:38.823Z,86.33
2022-11-16T20:12:06.239Z,85.90
2022-11-16T20:14:33.567Z,85.88
2022-11-16T20:17:01.019Z,86.29
2022-11-16T20:19:28.286Z,86.03
2022-11-16T20:21:55.744Z,86.23
2022-11-16T20:24:23.063Z,85.96
2022-11-16T20:26:50.314Z,85.69
2022-11-16T20:29:18.387Z,86.16
2022-11-16T20:31:46.345Z,85.73
2022-11-16T20:34:17.163Z,86.02
2022-11-16T20:36:45.771Z,86.00
2022-11-16T20:39:17.432Z,85.37
2022-11-16T20:41:44.989Z,84.91
2022-11-16T20:44:16.533Z,85.85
2022-11-16T20:46:45.279Z,86.06
2022-11-16T20:49:12.577Z,86.10
2022-11-16T20:51:39.899Z,85.62
2022-11-16T20:54:07.260Z,85.41
2022-11-16T20:56:34.663Z,85.87
2022-11-16T20:59:02.020Z,85.38
2022-11-16T21:01:31.934Z,85.98
2022-11-16T21:04:03.599Z,86.53
2022-11-16T21:06:31.283Z,87.17
2022-11-16T21:08:59.068Z,87.50
2022-11-16T21:11:29.071Z,87.23
2022-11-16T21:14:15.338Z,87.51
2022-11-16T21:16:42.654Z,87.68
2022-11-16T21:19:09.881Z,87.42
2022-11-16T21:21:38.162Z,87.32
2022-11-16T21:24:05.664Z,87.55
2022-11-16T21:26:33.398Z,87.92
2022-11-16T21:29:01.268Z,87.51
2022-11-16T21:31:30.070Z,86.76
2022-11-16T21:33:57.343Z,86.43
2022-11-16T21:36:25.887Z,86.89
2022-11-16T21:38:53.229Z,86.95
2022-11-16T21:41:21.806Z,86.81
2022-11-16T21:43:48.997Z,85.84
2022-11-16T21:46:17.979Z,85.88
2022-11-16T21:48:45.244Z,85.99
2022-11-16T21:51:16.573Z,86.12
2022-11-16T21:53:43.932Z,86.32
2022-11-16T21:56:18.466Z,86.41
2022-11-16T21:58:45.829Z,86.30
2022-11-16T22:01:13.859Z,86.48
2022-11-16T22:03:41.174Z,86.46
2022-11-16T22:06:28.732Z,86.67
2022-11-16T22:08:55.992Z,86.36
2022-11-16T22:11:23.280Z,86.47
2022-11-16T22:13:50.608Z,86.72
2022-11-16T22:16:18.958Z,86.40
2022-11-16T22:18:46.238Z,86.21
2022-11-16T22:21:13.533Z,85.88
2022-11-16T22:23:40.996Z,85.87
2022-11-16T22:26:10.223Z,85.90
2022-11-16T22:28:37.794Z,85.94
2022-11-16T22:31:06.120Z,86.11
2022-11-16T22:33:33.813Z,86.59
2022-11-16T22:36:01.496Z,86.97
2022-11-16T22:38:29.016Z,86.75
2022-11-16T22:40:56.716Z,86.44
2022-11-16T22:43:25.999Z,86.27
2022-11-16T22:46:00.281Z,86.02
2022-11-16T22:48:35.122Z,86.35
2022-11-16T22:51:06.915Z,86.29
2022-11-16T22:53:35.042Z,86.37
2022-11-16T22:56:07.079Z,86.81
2022-11-16T22:58:35.523Z,86.99
2022-11-16T23:01:03.110Z,87.16
2022-11-16T23:03:30.501Z,87.98
2022-11-16T23:05:57.720Z,88.04
2022-11-16T23:08:25.077Z,88.21
2022-11-16T23:11:20.211Z,87.93
2022-11-16T23:14:06.378Z,87.89
2022-11-16T23:16:33.796Z,88.25
2022-11-16T23:19:01.062Z,88.39
2022-11-16T23:21:46.741Z,88.69
2022-11-16T23:24:33.307Z,88.96
2022-11-16T23:27:21.958Z,89.00
2022-11-16T23:29:49.305Z,88.87
2022-11-16T23:32:16.519Z,88.89
2022-11-16T23:34:43.860Z,88.57
2022-11-16T23:37:11.077Z,88.57
2022-11-16T23:39:38.333Z,88.52
2022-11-16T23:42:24.061Z,88.28
2022-11-16T23:44:51.418Z,88.68
2022-11-16T23:47:18.601Z,88.81
2022-11-16T23:49:45.864Z,88.70
2022-11-16T23:52:13.064Z,88.66
2022-11-16T23:54:40.328Z,88.58
2022-11-16T23:57:07.570Z,88.45
2022-11-16T23:59:34.832Z,88.19
